Gulkana, AK

10:20 AM AKDT on September 18, 2014 (GMT -0800)
Gulkana | Change Station
CLOSE
Current Station
Airport
Location: Gulkana,
Elevation: 1578 ft
Nearby Weather Stations

Elev 1578 ft 62.16 °N, 145.46 °W | Updated 27 minutes ago

Mostly Cloudy
Mostly Cloudy
45 °F
Feels Like 40 °F
N
9
Wind Variable Wind from North

Today
High -- | Low -- °F
--% Chance of Precip.
Yesterday
High -- | Low -- °F
Precip. -- in
7:15 AM 7:54 PM
Waning Crescent, 25% visible
Pressure 29.16 in
Visibility 10.0 miles
Clouds Mostly Cloudy 11000 ft
Windchill 40 °F
Dew Point 35 °F
Humidity 68%
Rainfall 0.00 in
Snow Depth 1 in , 1 in , 0 in
UV 1 out of 12
Pollen Not available.
Air Quality Not available.
Flu Activity Not available.
METAR PAGK 181753Z AUTO 01008KT 10SM BKN110 07/02 A2914 RMK AO2 SLP875 60000 T00720017 10078 20061 56016 TSNO

More Conditions Fewer Conditions

Pressure 29.16 in
Visibility 10.0 miles
Clouds Mostly Cloudy 11000 ft
Windchill 40 °F
Dew Point 35 °F
Humidity 68%
Rainfall 0.00 in
Snow Depth 1 in , 1 in , 0 in
UV 1 out of 12
Pollen Not available.
Air Quality Not available.
Flu Activity Not available.
METAR PAGK 181753Z AUTO 01008KT 10SM BKN110 07/02 A2914 RMK AO2 SLP875 60000 T00720017 10078 20061 56016 TSNO

More Conditions Fewer Conditions

10-Day Weather Forecast

Almanac

Astronomy

Sep. 18, 2014 Rise Set
Actual Time 7:15 AM AKDT 7:54 PM AKDT
Civil Twilight 6:30 AM AKDT 8:39 PM AKDT
Nautical Twilight 5:35 AM AKDT 9:34 PM AKDT
Astronomical Twilight 4:31 AM AKDT 10:36 PM AKDT
Moon 1:03 AM AKDT 5:55 PM AKDT
Length of Visible Light 14h 08m
Length of Day
12h 38m
Tomorrow will be 5m 54s shorter.
Waning Crescent, 25% of the Moon is Illuminated
Today
Waning Crescent
Sep 24
New
Oct 1
First Quarter
Oct 8
Full
Oct 15
Last Quarter

Today's Extremes

State Highs State Lows

Community

WunderPhotos

Upload Photos

1,754,414 photos uploaded!

Nearby

Snow Depth

Station Depth Elevation
Indian Pass 1 in 2300 ft
Munson Ridge 1 in 3100 ft
Long Lake 0 in 820 ft
Upper Tsaina River 0 in 1750 ft
Point Mackenzie 1 in 200 ft

Earthquake Activity

City Distance Mag. Time & Date
No recent earthquake activity has been reported nearby.
Minimum magnitude displayed is 2.5.

Coastal Water Temperatures

Place Temperature
No Stations Reporting

Nearby Weather Stations